Burwell, NE

12:52 AM CDT on May 30, 2015 (GMT -0500)
Albion Municipal | | Change Station
CLOSE
Current Station
Airport
Location: Albion,
Elevation: 1804 ft
Nearby Weather Stations

Elev 1804 ft 41.73 °N, 98.06 °W | Updated 17 minutes ago

Overcast
Overcast
50 °F
Feels Like 50 °F
N
16
Wind Variable Wind from NNW
Gusts 24 mph

Today
High -- | Low -- °F
--% Chance of Precip.
Yesterday
High -- | Low -- °F
Precip. -- in
6:05 AM 9:03 PM
Waxing Gibbous, 88% visible
Pressure 30.18 in
Visibility 10.0 miles
Clouds Overcast 5000 ft
Dew Point 43 °F
Humidity 78%
Rainfall 0.00 in
Snow Depth Not available.
UV 0 out of 12
Pollen 2.70 out of 12
Air Quality Not available.
Flu Activity No Activity
METAR KBVN 300535Z AUTO 34014G21KT 10SM OVC050 10/06 A3018 RMK AO2 T00970060

More Conditions Fewer Conditions

Pressure 30.18 in
Visibility 10.0 miles
Clouds Overcast 5000 ft
Dew Point 43 °F
Humidity 78%
Rainfall 0.00 in
Snow Depth Not available.
UV 0 out of 12
Pollen 2.70 out of 12
Air Quality Not available.
Flu Activity No Activity
METAR KBVN 300535Z AUTO 34014G21KT 10SM OVC050 10/06 A3018 RMK AO2 T00970060

More Conditions Fewer Conditions

10-Day Weather Forecast

Almanac

Astronomy

May. 30, 2015 Rise Set
Actual Time
Civil Twilight
Nautical Twilight
Astronomical Twilight
Moon
Length of Visible Light
Length of Day
Tomorrow will be .
, % of the Moon is Illuminated

Today's Extremes

State Highs State Lows

Community

WunderPhotos

Upload Photos

1,825,473 photos uploaded!

WunderBlogs® & News

Nearby

Air Quality

  Air Quality AQ Index Pollutant
Not available.

Snow Depth

Station Depth Elevation

Earthquake Activity

City Distance Mag. Time & Date
Minimum magnitude displayed is 2.5.

Coastal Water Temperatures

Place Temperature

Stations

Nearby Weather Stations

Station Location Temp. Windchill Dew Point Humidity Wind Precip. Elev Updated Type